Time;durP1;ratioP1;P1;durP2;ratioP2;P2;SDS_P1;SDS_P2;PMS_P1;PMS_P2;Temp;Humidity;BMP_temperature;BMP_pressure;BME280_temperature;BME280_humidity;BME280_pressure;Samples;Min_cycle;Max_cycle;Signal;HPM_P1;HPM_P2
2021/11/20 00:00:47;;;;;;;0.95;0.65;;;1.00;99.90;;;;;;5113341;28;20023;-66
2021/11/20 00:03:12;;;;;;;2.00;0.60;;;1.00;99.90;;;;;;5113040;28;20032;-66
2021/11/20 00:05:42;;;;;;;1.70;0.75;;;1.00;99.90;;;;;;5113183;28;20023;-66
2021/11/20 00:08:09;;;;;;;1.48;0.90;;;1.10;99.90;;;;;;5098957;28;20023;-66
2021/11/20 00:10:37;;;;;;;2.10;0.60;;;1.10;99.90;;;;;;5113158;28;20028;-66
2021/11/20 00:13:08;;;;;;;0.77;0.50;;;1.10;99.90;;;;;;5112777;28;20109;-66
2021/11/20 00:15:40;;;;;;;1.90;0.77;;;1.10;99.90;;;;;;5101448;28;20024;-66
2021/11/20 00:18:07;;;;;;;0.57;0.57;;;1.10;99.90;;;;;;5110841;28;20024;-66
2021/11/20 00:20:35;;;;;;;0.60;0.60;;;1.20;99.90;;;;;;5112976;28;20023;-66
2021/11/20 00:23:01;;;;;;;0.77;0.75;;;1.20;99.90;;;;;;5112697;28;20011;-66
2021/11/20 00:25:47;;;;;;;1.35;0.65;;;1.20;99.90;;;;;;5097055;28;20554;-66
2021/11/20 00:28:19;;;;;;;0.73;0.50;;;1.20;99.90;;;;;;5099136;28;20061;-66
2021/11/20 00:30:54;;;;;;;0.70;0.70;;;1.30;99.90;;;;;;5099063;28;20023;-66
2021/11/20 00:33:22;;;;;;;1.27;0.60;;;1.30;99.90;;;;;;5111344;28;20488;-66
2021/11/20 00:35:51;;;;;;;0.65;0.60;;;1.30;99.90;;;;;;5112570;28;20053;-66
2021/11/20 00:38:18;;;;;;;0.70;0.70;;;1.40;99.90;;;;;;5112742;28;20032;-66
2021/11/20 00:40:48;;;;;;;0.65;0.65;;;1.40;99.90;;;;;;5098002;28;20516;-66
2021/11/20 00:43:15;;;;;;;0.60;0.60;;;1.40;99.90;;;;;;5112305;28;20023;-66
2021/11/20 00:45:42;;;;;;;0.82;0.60;;;1.40;99.90;;;;;;5112337;28;20107;-65
2021/11/20 00:48:10;;;;;;;0.60;0.60;;;1.40;99.90;;;;;;5112009;28;20024;-65
2021/11/20 00:50:37;;;;;;;1.15;0.70;;;1.50;99.90;;;;;;5112087;28;20499;-65
2021/11/20 00:53:04;;;;;;;0.50;0.50;;;1.50;99.90;;;;;;5112099;28;20047;-65
2021/11/20 00:55:31;;;;;;;0.60;0.60;;;1.50;99.90;;;;;;5111930;27;20503;-65
2021/11/20 00:57:58;;;;;;;0.50;0.50;;;1.50;99.90;;;;;;5112512;28;20031;-65
2021/11/20 01:00:28;;;;;;;1.25;0.63;;;1.50;99.90;;;;;;5111820;28;20379;-65
2021/11/20 01:02:54;;;;;;;0.85;0.60;;;1.50;99.90;;;;;;5112323;28;20076;-65
2021/11/20 01:05:20;;;;;;;0.50;0.50;;;1.60;99.90;;;;;;5092755;28;20040;-66
2021/11/20 01:07:47;;;;;;;0.57;0.57;;;1.60;99.90;;;;;;5091642;28;20023;-66
2021/11/20 01:10:16;;;;;;;0.57;0.57;;;1.60;99.90;;;;;;5091456;28;20073;-65
2021/11/20 01:12:42;;;;;;;2.17;0.75;;;1.60;99.90;;;;;;5098903;28;20050;-66
2021/11/20 01:15:12;;;;;;;1.27;0.70;;;1.60;99.90;;;;;;5106532;28;20490;-66
2021/11/20 01:17:37;;;;;;;0.50;0.50;;;1.60;99.90;;;;;;5112035;28;20027;-66
2021/11/20 01:20:06;;;;;;;0.40;0.40;;;1.70;99.90;;;;;;5098111;28;20108;-66
2021/11/20 01:22:32;;;;;;;0.60;0.60;;;1.70;99.90;;;;;;5097334;28;20378;-66
2021/11/20 01:24:58;;;;;;;0.50;0.50;;;1.70;99.90;;;;;;5111921;28;20042;-66
2021/11/20 01:27:25;;;;;;;0.50;0.50;;;1.70;99.90;;;;;;5111936;28;20414;-66
2021/11/20 01:29:51;;;;;;;0.95;0.70;;;1.70;99.90;;;;;;5112123;28;20032;-66
2021/11/20 01:32:17;;;;;;;0.50;0.50;;;1.70;99.90;;;;;;5095759;28;20704;-66
2021/11/20 01:34:45;;;;;;;0.50;0.50;;;1.70;99.90;;;;;;5091734;28;20021;-66
2021/11/20 01:37:12;;;;;;;0.55;0.55;;;1.80;99.90;;;;;;5091422;28;20032;-66
2021/11/20 01:39:38;;;;;;;0.50;0.50;;;1.80;99.90;;;;;;5090150;28;20024;-66
2021/11/20 01:42:26;;;;;;;1.42;0.70;;;1.80;99.90;;;;;;5103301;28;20076;-66
2021/11/20 01:44:55;;;;;;;0.65;0.60;;;1.80;99.90;;;;;;5098311;28;20036;-66
2021/11/20 01:47:40;;;;;;;0.60;0.60;;;1.90;99.90;;;;;;5111564;28;20015;-66
2021/11/20 01:50:11;;;;;;;1.20;0.68;;;1.90;99.90;;;;;;5099283;28;20058;-66
2021/11/20 01:52:58;;;;;;;0.43;0.43;;;1.90;99.90;;;;;;5110765;28;20031;-66
2021/11/20 01:55:32;;;;;;;0.70;0.70;;;1.90;99.90;;;;;;5099513;28;20048;-66
2021/11/20 01:58:22;;;;;;;0.50;0.50;;;1.90;99.90;;;;;;5097182;28;20024;-66
2021/11/20 02:01:03;;;;;;;0.60;0.60;;;2.00;99.90;;;;;;5113821;28;20112;-67
2021/11/20 02:03:31;;;;;;;0.50;0.50;;;2.00;99.90;;;;;;5115703;28;20363;-66
2021/11/20 02:06:08;;;;;;;0.50;0.50;;;2.00;99.90;;;;;;5102853;28;20024;-67
2021/11/20 02:08:45;;;;;;;0.52;0.50;;;2.00;99.90;;;;;;5101377;28;20558;-67
2021/11/20 02:11:34;;;;;;;0.40;0.40;;;2.00;99.90;;;;;;5101658;28;20020;-67
2021/11/20 02:14:00;;;;;;;0.50;0.50;;;2.00;99.90;;;;;;5095109;28;20122;-67
2021/11/20 02:16:31;;;;;;;0.40;0.40;;;2.00;99.90;;;;;;5108856;28;20102;-67
2021/11/20 02:19:00;;;;;;;0.60;0.60;;;2.10;99.90;;;;;;5094954;28;20479;-67
2021/11/20 02:21:36;;;;;;;0.60;0.60;;;2.10;99.90;;;;;;5107757;28;20149;-67
2021/11/20 02:24:02;;;;;;;0.60;0.60;;;2.10;99.90;;;;;;5095041;28;20032;-67
2021/11/20 02:55:32;;;;;;;0.40;0.40;;;2.10;99.90;;;;;;5100411;28;20093;-66
2021/11/20 02:57:59;;;;;;;1.55;0.60;;;2.10;99.90;;;;;;5108517;28;20503;-66
2021/11/20 03:00:26;;;;;;;1.25;0.60;;;2.10;99.90;;;;;;5093932;28;20024;-66
2021/11/20 03:02:52;;;;;;;0.82;0.50;;;2.10;99.90;;;;;;5097981;28;20550;-66
2021/11/20 03:05:20;;;;;;;0.50;0.50;;;2.10;99.90;;;;;;5103989;28;20127;-66
2021/11/20 03:07:45;;;;;;;0.60;0.60;;;2.10;99.90;;;;;;5096301;28;20020;-66
2021/11/20 03:10:11;;;;;;;0.60;0.60;;;2.20;99.90;;;;;;5105994;28;20024;-66
2021/11/20 03:12:37;;;;;;;0.90;0.60;;;2.20;99.90;;;;;;5104684;28;20063;-66
2021/11/20 03:15:06;;;;;;;0.57;0.57;;;2.10;99.90;;;;;;5114074;28;20425;-66
2021/11/20 03:17:32;;;;;;;0.73;0.50;;;2.20;99.90;;;;;;5114175;28;20624;-66
2021/11/20 03:19:59;;;;;;;0.55;0.55;;;2.10;99.90;;;;;;5114007;28;20028;-66
2021/11/20 03:22:39;;;;;;;0.68;0.68;;;2.20;99.90;;;;;;5105900;28;20028;-66
2021/11/20 03:25:06;;;;;;;0.60;0.60;;;2.20;99.90;;;;;;5108984;28;20035;-66
2021/11/20 03:27:32;;;;;;;0.60;0.60;;;2.10;99.90;;;;;;5106687;27;20020;-66
2021/11/20 03:29:57;;;;;;;0.50;0.50;;;2.10;99.90;;;;;;5093594;28;20066;-66
2021/11/20 03:32:23;;;;;;;0.50;0.50;;;2.10;99.90;;;;;;5112784;28;20054;-66
2021/11/20 03:34:49;;;;;;;0.75;0.60;;;2.10;99.90;;;;;;5102657;28;20035;-66
2021/11/20 03:37:17;;;;;;;1.02;0.60;;;2.10;99.90;;;;;;5107776;28;20023;-66
2021/11/20 03:39:42;;;;;;;1.85;0.60;;;2.10;99.90;;;;;;5102980;28;20114;-66
2021/11/20 03:42:08;;;;;;;0.57;0.55;;;2.10;99.90;;;;;;5112180;28;20095;-66
2021/11/20 03:44:35;;;;;;;0.50;0.50;;;2.10;99.90;;;;;;5100751;28;20034;-66
2021/11/20 03:47:01;;;;;;;0.70;0.70;;;2.20;99.90;;;;;;5100411;28;20379;-66
2021/11/20 03:49:27;;;;;;;0.60;0.60;;;2.20;99.90;;;;;;5098484;28;20023;-66
2021/11/20 03:51:52;;;;;;;0.50;0.50;;;2.20;99.90;;;;;;5101895;28;20028;-66
2021/11/20 03:54:18;;;;;;;0.50;0.50;;;2.20;99.90;;;;;;5096379;28;20020;-66
2021/11/20 03:56:44;;;;;;;0.65;0.65;;;2.20;99.90;;;;;;5113329;28;20151;-66
2021/11/20 03:59:11;;;;;;;0.40;0.40;;;2.20;99.90;;;;;;5097339;28;20077;-66
2021/11/20 04:01:37;;;;;;;0.50;0.50;;;2.30;99.90;;;;;;5100928;27;20080;-66
2021/11/20 04:04:04;;;;;;;0.60;0.60;;;2.30;99.90;;;;;;5113363;28;20024;-66
2021/11/20 04:06:29;;;;;;;0.50;0.50;;;2.30;99.90;;;;;;5107307;28;20055;-66
2021/11/20 04:08:55;;;;;;;0.60;0.60;;;2.30;99.90;;;;;;5105357;28;20086;-65
2021/11/20 04:11:30;;;;;;;0.55;0.55;;;2.30;99.90;;;;;;5109180;28;20428;-66
2021/11/20 04:13:57;;;;;;;0.60;0.60;;;2.30;99.90;;;;;;5092933;28;20024;-66
2021/11/20 04:16:24;;;;;;;0.43;0.43;;;2.30;99.90;;;;;;5092913;28;20081;-66
2021/11/20 04:18:51;;;;;;;0.55;0.55;;;2.40;99.90;;;;;;5107018;28;20054;-66
2021/11/20 04:21:18;;;;;;;0.50;0.50;;;2.40;99.90;;;;;;5092445;28;20487;-66
2021/11/20 04:23:47;;;;;;;0.63;0.50;;;2.40;99.90;;;;;;5106189;28;20499;-66
2021/11/20 04:26:15;;;;;;;0.50;0.50;;;2.40;99.90;;;;;;5102712;28;20026;-66
2021/11/20 04:28:41;;;;;;;0.60;0.60;;;2.40;99.90;;;;;;5095722;28;20080;-66
2021/11/20 04:31:08;;;;;;;0.55;0.50;;;2.50;99.90;;;;;;5092538;28;20028;-66
2021/11/20 04:33:34;;;;;;;0.60;0.60;;;2.50;99.90;;;;;;5107647;28;20103;-66
2021/11/20 04:36:00;;;;;;;0.70;0.70;;;2.40;99.90;;;;;;5106010;28;20020;-66
2021/11/20 04:38:25;;;;;;;0.50;0.50;;;2.50;99.90;;;;;;5092193;28;20043;-65
2021/11/20 04:40:51;;;;;;;0.60;0.60;;;2.40;99.90;;;;;;5092312;28;20090;-65
2021/11/20 04:43:17;;;;;;;0.40;0.40;;;2.40;99.90;;;;;;5102933;28;20506;-65
2021/11/20 04:45:43;;;;;;;0.50;0.50;;;2.40;99.90;;;;;;5112561;28;20043;-65
2021/11/20 04:48:09;;;;;;;0.60;0.60;;;2.40;99.90;;;;;;5112325;28;20023;-65
2021/11/20 04:50:36;;;;;;;0.82;0.63;;;2.40;99.90;;;;;;5097861;28;20105;-65
2021/11/20 04:53:03;;;;;;;0.50;0.50;;;2.40;99.90;;;;;;5111038;28;20390;-65
2021/11/20 04:55:29;;;;;;;0.50;0.50;;;2.40;99.90;;;;;;5112015;28;20552;-65
2021/11/20 04:57:55;;;;;;;0.65;0.50;;;2.40;99.90;;;;;;5091291;28;20032;-65
2021/11/20 05:00:31;;;;;;;1.95;0.65;;;2.40;99.90;;;;;;5091992;28;20020;-65
2021/11/20 05:02:57;;;;;;;0.50;0.50;;;2.40;99.90;;;;;;5091773;28;20111;-65
2021/11/20 05:05:23;;;;;;;0.50;0.50;;;2.40;99.90;;;;;;5102521;28;20114;-65
2021/11/20 05:07:50;;;;;;;0.60;0.60;;;2.30;99.90;;;;;;5097642;28;20080;-65
2021/11/20 05:10:15;;;;;;;0.45;0.45;;;2.30;99.90;;;;;;5112024;28;20054;-65
2021/11/20 05:12:42;;;;;;;0.50;0.50;;;2.30;99.90;;;;;;5112231;28;20055;-65
2021/11/20 05:15:11;;;;;;;1.27;0.60;;;2.30;99.90;;;;;;5112018;28;20019;-65
2021/11/20 05:17:37;;;;;;;0.50;0.50;;;2.30;99.90;;;;;;5112210;28;20046;-65
2021/11/20 05:20:04;;;;;;;0.50;0.50;;;2.30;99.90;;;;;;5096157;28;20535;-65
2021/11/20 05:22:30;;;;;;;0.82;0.50;;;2.30;99.90;;;;;;5099514;28;20111;-65
2021/11/20 05:24:56;;;;;;;0.50;0.50;;;2.30;99.90;;;;;;5111891;28;20106;-66
2021/11/20 05:27:22;;;;;;;0.60;0.60;;;2.30;99.90;;;;;;5111830;28;20039;-65
2021/11/20 05:29:56;;;;;;;0.50;0.50;;;2.30;99.90;;;;;;5099844;28;20484;-65
2021/11/20 05:32:22;;;;;;;0.70;0.70;;;2.30;99.90;;;;;;5105595;28;20103;-63
2021/11/20 05:34:47;;;;;;;0.65;0.65;;;2.30;99.90;;;;;;5090862;28;20120;-62
2021/11/20 05:37:14;;;;;;;0.60;0.60;;;2.30;99.90;;;;;;5109801;28;20024;-64
2021/11/20 05:39:40;;;;;;;1.02;0.50;;;2.20;99.90;;;;;;5105184;28;20028;-67
2021/11/20 05:42:06;;;;;;;0.60;0.60;;;2.30;99.90;;;;;;5115169;28;20072;-68
2021/11/20 05:44:32;;;;;;;1.25;0.60;;;4.70;99.90;;;;;;5095209;28;20024;-64
2021/11/20 05:46:59;;;;;;;0.57;0.57;;;5.90;99.90;;;;;;5096602;28;20035;-64
2021/11/20 05:49:26;;;;;;;2.17;0.50;;;5.40;99.90;;;;;;5112303;28;20020;-64
2021/11/20 05:51:53;;;;;;;0.45;0.45;;;4.70;99.90;;;;;;5094420;28;20016;-64
2021/11/20 05:54:19;;;;;;;0.40;0.40;;;4.30;99.90;;;;;;5099023;28;20251;-64
2021/11/20 05:56:45;;;;;;;0.50;0.50;;;4.00;99.90;;;;;;5096549;28;20130;-64
2021/11/20 05:59:11;;;;;;;0.52;0.50;;;3.70;99.90;;;;;;5096590;28;20032;-63
2021/11/20 06:01:36;;;;;;;0.50;0.50;;;3.50;99.90;;;;;;5098841;28;20020;-64
2021/11/20 06:04:02;;;;;;;0.70;0.70;;;3.40;99.90;;;;;;5097254;28;20024;-65
2021/11/20 06:06:28;;;;;;;0.50;0.50;;;3.30;99.90;;;;;;5096939;28;20173;-64
2021/11/20 06:08:53;;;;;;;0.50;0.50;;;3.20;99.90;;;;;;5097689;28;20034;-64
2021/11/20 06:11:19;;;;;;;0.60;0.60;;;3.00;99.90;;;;;;5096563;28;20102;-64
2021/11/20 06:13:46;;;;;;;0.70;0.70;;;2.90;99.90;;;;;;5099415;28;20023;-64
2021/11/20 06:16:13;;;;;;;0.50;0.50;;;2.80;99.90;;;;;;5094739;28;20024;-64
2021/11/20 06:18:39;;;;;;;0.82;0.57;;;2.70;99.90;;;;;;5094812;28;20024;-64
2021/11/20 06:21:05;;;;;;;1.45;0.43;;;2.70;99.90;;;;;;5096020;28;20032;-65
2021/11/20 06:23:33;;;;;;;0.40;0.40;;;2.60;99.90;;;;;;5096264;28;20030;-64
2021/11/20 06:25:59;;;;;;;0.50;0.50;;;2.70;99.90;;;;;;5096141;28;20049;-64
2021/11/20 06:28:26;;;;;;;0.52;0.52;;;2.70;99.90;;;;;;5109394;28;20046;-64
2021/11/20 06:30:52;;;;;;;0.40;0.40;;;2.70;99.90;;;;;;5112971;28;20034;-64
2021/11/20 06:33:18;;;;;;;0.50;0.50;;;2.60;99.90;;;;;;5115090;28;20620;-64
2021/11/20 06:35:44;;;;;;;0.50;0.50;;;2.50;99.90;;;;;;5113043;28;20432;-64
2021/11/20 06:38:10;;;;;;;1.58;0.50;;;2.50;99.90;;;;;;5114951;28;20028;-64
2021/11/20 06:40:41;;;;;;;0.50;0.50;;;2.50;99.90;;;;;;5114903;28;20019;-64
2021/11/20 06:43:11;;;;;;;0.50;0.50;;;2.50;99.90;;;;;;5114896;28;20016;-64
2021/11/20 06:45:41;;;;;;;0.40;0.40;;;2.50;99.90;;;;;;5114110;28;20035;-64
2021/11/20 06:48:08;;;;;;;0.52;0.52;;;2.40;99.90;;;;;;5114876;28;20273;-64
2021/11/20 06:50:35;;;;;;;0.50;0.50;;;2.40;99.90;;;;;;5114492;28;20486;-64
2021/11/20 06:53:03;;;;;;;0.60;0.60;;;2.40;99.90;;;;;;5114939;28;20030;-64
2021/11/20 06:55:30;;;;;;;0.60;0.60;;;2.40;99.90;;;;;;5114592;28;20036;-64
2021/11/20 06:58:52;;;;;;;0.60;0.60;;;2.30;99.90;;;;;;5114347;28;20034;-64
2021/11/20 07:00:55;;;;;;;0.50;0.50;;;2.30;99.90;;;;;;5103456;28;20468;-64
2021/11/20 07:03:46;;;;;;;0.50;0.50;;;2.30;99.90;;;;;;5114357;28;20114;-64
2021/11/20 07:06:21;;;;;;;0.73;0.60;;;2.30;99.90;;;;;;5114730;28;20125;-68
2021/11/20 07:08:50;;;;;;;0.50;0.50;;;2.20;99.90;;;;;;5114803;28;20206;-68
2021/11/20 07:11:16;;;;;;;0.50;0.50;;;2.10;99.90;;;;;;5114438;28;20384;-69
2021/11/20 07:13:43;;;;;;;1.15;0.60;;;2.10;99.90;;;;;;5094987;28;20031;-71
2021/11/20 07:16:11;;;;;;;0.60;0.60;;;2.10;99.90;;;;;;5093894;28;20023;-71
2021/11/20 07:18:37;;;;;;;0.40;0.40;;;2.10;99.90;;;;;;5096168;28;20024;-69
2021/11/20 07:21:04;;;;;;;0.60;0.60;;;2.00;99.90;;;;;;5093490;28;20028;-66
2021/11/20 07:23:30;;;;;;;0.60;0.60;;;2.00;99.90;;;;;;5099620;27;20496;-65
2021/11/20 07:25:57;;;;;;;0.90;0.70;;;2.00;99.90;;;;;;5113292;28;20031;-65
2021/11/20 07:28:24;;;;;;;0.60;0.60;;;2.00;99.90;;;;;;5110569;28;20026;-65
2021/11/20 07:30:50;;;;;;;0.95;0.70;;;2.00;99.90;;;;;;5094206;28;20032;-66
2021/11/20 07:33:16;;;;;;;0.60;0.60;;;2.00;99.90;;;;;;5105688;28;20486;-65
2021/11/20 07:35:46;;;;;;;1.52;0.70;;;2.00;99.90;;;;;;5111542;28;20023;-65
2021/11/20 07:38:16;;;;;;;1.75;0.80;;;2.00;99.90;;;;;;5104449;28;20020;-65
2021/11/20 07:40:43;;;;;;;0.70;0.70;;;2.00;99.90;;;;;;5111598;28;20072;-67
2021/11/20 07:43:09;;;;;;;0.63;0.63;;;2.00;99.90;;;;;;5108960;27;20065;-67
2021/11/20 07:45:35;;;;;;;1.10;1.00;;;2.00;99.90;;;;;;5108936;28;20032;-66
2021/11/20 07:48:07;;;;;;;1.23;0.90;;;2.10;99.90;;;;;;5113244;28;20022;-68
2021/11/20 07:50:33;;;;;;;1.38;0.90;;;2.20;99.90;;;;;;5109554;28;20028;-68
2021/11/20 07:52:59;;;;;;;2.25;0.77;;;2.50;99.90;;;;;;5108126;28;20550;-67
2021/11/20 07:55:24;;;;;;;0.50;0.50;;;2.70;99.90;;;;;;5109164;28;20110;-66
2021/11/20 07:57:50;;;;;;;0.60;0.60;;;3.10;99.90;;;;;;5108677;28;20043;-66
2021/11/20 08:00:20;;;;;;;2.13;0.80;;;3.50;99.90;;;;;;5110216;28;20019;-67
2021/11/20 08:02:47;;;;;;;0.60;0.60;;;3.80;99.90;;;;;;5109439;28;20383;-67
2021/11/20 08:05:13;;;;;;;0.52;0.52;;;4.00;99.90;;;;;;5113469;28;20043;-67
2021/11/20 08:07:38;;;;;;;0.75;0.75;;;4.10;99.90;;;;;;5112734;28;20479;-67
2021/11/20 08:10:10;;;;;;;0.68;0.65;;;4.20;99.90;;;;;;5113090;28;20032;-66
2021/11/20 08:12:36;;;;;;;0.50;0.50;;;4.30;99.90;;;;;;5115140;28;20023;-65
2021/11/20 08:15:04;;;;;;;0.50;0.50;;;4.20;99.90;;;;;;5113336;28;20027;-64
2021/11/20 08:17:30;;;;;;;0.50;0.50;;;3.70;99.90;;;;;;5113330;28;20083;-65
2021/11/20 08:19:55;;;;;;;0.50;0.50;;;3.40;99.90;;;;;;5112534;28;20479;-65
2021/11/20 08:22:21;;;;;;;0.85;0.50;;;3.20;99.90;;;;;;5112656;28;20015;-64
2021/11/20 08:24:47;;;;;;;0.50;0.50;;;3.00;99.90;;;;;;5112839;28;20077;-65
2021/11/20 08:27:13;;;;;;;0.57;0.57;;;2.90;99.90;;;;;;5112765;28;20432;-64
2021/11/20 08:29:39;;;;;;;1.20;1.10;;;2.80;99.90;;;;;;5113125;28;20114;-64
2021/11/20 08:32:07;;;;;;;2.03;1.33;;;2.80;99.90;;;;;;5112968;28;20032;-65
2021/11/20 08:34:34;;;;;;;6.00;3.15;;;2.80;99.90;;;;;;5112632;28;20023;-66
2021/11/20 08:37:00;;;;;;;2.85;1.90;;;2.80;99.90;;;;;;5112522;28;20026;-66
2021/11/20 08:39:27;;;;;;;2.92;2.10;;;3.30;99.90;;;;;;5105620;28;20036;-66
2021/11/20 08:41:53;;;;;;;2.90;1.50;;;4.10;99.90;;;;;;5104380;28;20044;-66
2021/11/20 08:44:19;;;;;;;2.65;2.10;;;4.20;99.90;;;;;;5112430;28;20019;-65
2021/11/20 08:46:46;;;;;;;4.78;3.00;;;3.90;99.90;;;;;;5112527;28;20115;-64
2021/11/20 08:49:14;;;;;;;1.20;1.10;;;3.60;99.90;;;;;;5109071;28;20044;-63
2021/11/20 08:51:42;;;;;;;0.75;0.75;;;3.30;99.90;;;;;;5101834;28;20049;-63
2021/11/20 08:54:08;;;;;;;0.60;0.60;;;3.20;99.90;;;;;;5112715;28;20028;-63
2021/11/20 08:56:36;;;;;;;0.60;0.60;;;3.10;99.90;;;;;;5112171;28;20126;-63
2021/11/20 08:59:03;;;;;;;0.60;0.60;;;3.00;99.90;;;;;;5112473;28;20106;-63
2021/11/20 09:01:36;;;;;;;0.55;0.55;;;3.00;99.90;;;;;;5107209;28;20020;-63
2021/11/20 09:04:25;;;;;;;0.60;0.60;;;3.00;99.90;;;;;;5097651;28;20031;-60
2021/11/20 09:07:04;;;;;;;0.98;0.60;;;2.90;99.90;;;;;;5093182;28;20421;-60
2021/11/20 09:09:40;;;;;;;0.55;0.55;;;2.90;99.90;;;;;;5093527;28;20491;-60
2021/11/20 09:12:26;;;;;;;0.50;0.50;;;2.90;99.90;;;;;;5105793;28;20437;-60
2021/11/20 09:15:06;;;;;;;0.50;0.50;;;2.90;99.90;;;;;;5112333;28;20020;-62
2021/11/20 09:17:32;;;;;;;0.70;0.70;;;2.90;99.90;;;;;;5110584;28;20478;-61
2021/11/20 09:19:58;;;;;;;0.52;0.52;;;2.90;99.90;;;;;;5112219;28;20413;-63
2021/11/20 09:22:24;;;;;;;0.60;0.60;;;2.90;99.90;;;;;;5112313;28;20027;-61
2021/11/20 09:24:50;;;;;;;1.23;0.60;;;2.80;99.90;;;;;;5112269;28;20566;-61
2021/11/20 09:27:17;;;;;;;0.60;0.60;;;2.90;99.90;;;;;;5112051;28;20023;-60
2021/11/20 09:29:43;;;;;;;0.63;0.60;;;3.10;99.90;;;;;;5111904;28;20510;-64
2021/11/20 09:32:09;;;;;;;0.50;0.50;;;3.00;99.90;;;;;;5104396;28;20164;-65
2021/11/20 09:34:36;;;;;;;0.70;0.70;;;2.90;99.90;;;;;;5111803;28;20038;-65
2021/11/20 09:37:02;;;;;;;8.43;5.55;;;2.90;99.90;;;;;;5111941;28;20104;-66
2021/11/20 09:39:31;;;;;;;1.58;1.38;;;2.80;99.90;;;;;;5111523;28;20024;-66
2021/11/20 09:42:27;;;;;;;0.90;0.90;;;2.80;99.90;;;;;;5112095;28;20073;-65
2021/11/20 09:44:58;;;;;;;1.20;1.10;;;2.80;99.90;;;;;;5108827;28;20035;-66
2021/11/20 09:47:37;;;;;;;0.80;0.80;;;2.80;99.90;;;;;;5111971;28;20019;-66
2021/11/20 09:50:10;;;;;;;1.20;1.10;;;2.70;99.90;;;;;;5112136;28;20379;-65
2021/11/20 09:52:36;;;;;;;0.90;0.90;;;2.70;99.90;;;;;;5110277;28;20106;-66
2021/11/20 09:55:03;;;;;;;0.80;0.80;;;2.70;99.90;;;;;;5109125;28;20132;-65
2021/11/20 09:57:36;;;;;;;0.93;0.70;;;2.70;99.90;;;;;;5099759;28;20123;-66
2021/11/20 10:00:37;;;;;;;0.75;0.75;;;2.70;99.90;;;;;;5104280;28;20098;-66
2021/11/20 10:03:08;;;;;;;1.95;0.70;;;2.70;99.90;;;;;;5111359;28;20043;-66
2021/11/20 10:05:44;;;;;;;0.50;0.50;;;2.70;99.90;;;;;;5111103;28;20044;-66
2021/11/20 10:08:25;;;;;;;0.50;0.50;;;2.70;99.90;;;;;;5106540;28;20025;-66
2021/11/20 10:11:08;;;;;;;0.60;0.60;;;2.80;99.90;;;;;;5111732;28;20435;-66
2021/11/20 10:13:56;;;;;;;0.60;0.60;;;2.80;99.90;;;;;;5109282;28;20023;-65
2021/11/20 10:16:26;;;;;;;0.90;0.60;;;2.80;99.90;;;;;;5111626;28;20067;-65
2021/11/20 10:18:57;;;;;;;0.60;0.60;;;2.80;99.90;;;;;;5111315;28;20107;-65
2021/11/20 10:21:39;;;;;;;0.50;0.50;;;2.80;99.90;;;;;;5112939;28;20042;-65
2021/11/20 10:24:26;;;;;;;0.50;0.50;;;2.80;99.90;;;;;;5114319;28;20023;-64
2021/11/20 10:27:24;;;;;;;0.82;0.68;;;2.80;99.90;;;;;;5099562;28;20047;-64
2021/11/20 10:30:23;;;;;;;0.50;0.50;;;2.80;99.90;;;;;;5083655;28;20032;-64
2021/11/20 10:33:17;;;;;;;1.25;0.60;;;2.80;99.90;;;;;;5103620;28;20088;-64
2021/11/20 10:36:07;;;;;;;0.65;0.65;;;2.80;99.90;;;;;;5113614;28;20077;-64
2021/11/20 10:38:41;;;;;;;0.60;0.60;;;2.80;99.90;;;;;;5114927;28;20019;-64
2021/11/20 10:41:34;;;;;;;0.60;0.60;;;2.80;99.90;;;;;;5103934;28;20032;-64
2021/11/20 10:44:24;;;;;;;1.58;0.60;;;2.80;99.90;;;;;;5105825;28;20436;-64
2021/11/20 10:47:11;;;;;;;0.60;0.60;;;2.80;99.90;;;;;;5115169;28;20023;-64
2021/11/20 10:49:48;;;;;;;0.70;0.70;;;2.80;99.90;;;;;;5104000;28;20493;-64
2021/11/20 10:52:21;;;;;;;0.60;0.60;;;2.80;99.90;;;;;;5114821;28;20414;-64
2021/11/20 10:55:04;;;;;;;1.40;0.60;;;2.80;99.90;;;;;;5114637;28;20027;-64
2021/11/20 10:57:54;;;;;;;0.60;0.60;;;2.80;99.90;;;;;;5114412;28;20024;-64
2021/11/20 11:00:24;;;;;;;0.70;0.70;;;2.90;99.90;;;;;;5114705;28;20016;-64
2021/11/20 11:03:08;;;;;;;;;;;2.90;99.90;;;;;;5114974;28;20584;-64
2021/11/20 11:05:52;;;;;;;0.60;0.60;;;2.90;99.90;;;;;;5114680;28;19919;-64
2021/11/20 11:08:42;;;;;;;1.38;0.60;;;2.90;99.90;;;;;;5093451;28;20027;-64
2021/11/20 11:11:26;;;;;;;0.70;0.70;;;2.90;99.90;;;;;;5097914;28;20020;-64
2021/11/20 11:13:58;;;;;;;0.55;0.55;;;4.00;99.90;;;;;;5101041;28;20098;-66
2021/11/20 11:16:40;;;;;;;0.68;0.68;;;4.10;99.90;;;;;;5095141;28;20052;-66
2021/11/20 11:19:24;;;;;;;0.60;0.60;;;3.80;99.90;;;;;;5094249;28;20024;-66
2021/11/20 11:21:55;;;;;;;0.60;0.60;;;3.50;99.90;;;;;;5109669;28;20089;-67
2021/11/20 11:24:52;;;;;;;0.70;0.70;;;3.50;99.90;;;;;;5110998;28;20502;-66
2021/11/20 11:27:38;;;;;;;0.95;0.70;;;3.30;99.90;;;;;;5095169;28;20039;-63
2021/11/20 11:30:03;;;;;;;0.60;0.60;;;3.20;99.90;;;;;;5093688;28;20028;-63
2021/11/20 11:32:32;;;;;;;0.40;0.40;;;3.10;99.90;;;;;;5106130;28;20035;-63
2021/11/20 11:35:06;;;;;;;0.57;0.57;;;3.10;99.90;;;;;;5106110;28;20157;-64
2021/11/20 11:37:58;;;;;;;0.60;0.60;;;3.10;99.90;;;;;;5113579;28;20072;-64
2021/11/20 11:40:27;;;;;;;0.60;0.60;;;3.10;99.90;;;;;;5107633;28;20475;-63
2021/11/20 11:43:10;;;;;;;0.50;0.50;;;3.10;99.90;;;;;;5107510;28;20135;-64
2021/11/20 11:45:48;;;;;;;0.50;0.50;;;3.10;99.90;;;;;;5113173;28;20480;-64
2021/11/20 11:48:14;;;;;;;0.60;0.60;;;3.10;99.90;;;;;;5107403;28;20532;-64
2021/11/20 11:51:13;;;;;;;0.60;0.60;;;3.00;99.90;;;;;;5113084;28;20023;-64
2021/11/20 11:54:08;;;;;;;0.60;0.60;;;3.00;99.90;;;;;;5105091;28;20387;-64
2021/11/20 11:56:54;;;;;;;0.60;0.60;;;3.00;99.90;;;;;;5080551;28;20277;-64
2021/11/20 11:59:34;;;;;;;0.60;0.60;;;3.00;99.90;;;;;;5112772;28;20121;-64
2021/11/20 12:02:02;;;;;;;;;;;3.00;99.90;;;;;;5113435;28;20026;-64
2021/11/20 12:04:40;;;;;;;0.50;0.50;;;3.00;99.90;;;;;;5112916;28;20648;-63
2021/11/20 12:07:09;;;;;;;0.60;0.60;;;3.00;99.90;;;;;;5112967;28;20057;-64
2021/11/20 12:09:48;;;;;;;0.57;0.57;;;3.00;99.90;;;;;;5106807;28;20011;-64
2021/11/20 12:12:35;;;;;;;0.60;0.60;;;3.00;99.90;;;;;;5105749;28;20020;-64
2021/11/20 12:15:21;;;;;;;0.65;0.65;;;3.00;99.90;;;;;;5098022;28;20028;-65
2021/11/20 12:18:37;;;;;;;0.70;0.70;;;3.00;99.90;;;;;;5097240;28;20032;-65
2021/11/20 12:21:16;;;;;;;0.60;0.60;;;3.00;99.90;;;;;;5095725;28;20069;-64
2021/11/20 12:23:53;;;;;;;0.50;0.50;;;2.90;99.90;;;;;;5109811;28;20110;-66
2021/11/20 12:26:25;;;;;;;1.27;0.70;;;2.90;99.90;;;;;;5112488;28;20047;-67
2021/11/20 12:28:51;;;;;;;1.52;0.70;;;2.90;99.90;;;;;;5112540;28;20055;-66
2021/11/20 12:31:24;;;;;;;0.52;0.52;;;3.70;99.90;;;;;;5111915;28;20063;-66
2021/11/20 12:33:57;;;;;;;0.50;0.50;;;3.90;99.90;;;;;;5112455;28;20102;-66
2021/11/20 12:36:45;;;;;;;0.70;0.70;;;3.60;99.90;;;;;;5112668;28;20391;-66
2021/11/20 12:39:39;;;;;;;0.60;0.60;;;3.40;99.90;;;;;;5112305;28;20153;-66
2021/11/20 12:42:16;;;;;;;0.90;0.60;;;3.30;99.90;;;;;;5107063;28;20047;-66
2021/11/20 12:44:44;;;;;;;0.70;0.70;;;3.20;99.90;;;;;;5111979;28;20035;-66
2021/11/20 12:47:34;;;;;;;0.93;0.70;;;3.10;99.90;;;;;;5112033;28;20045;-66
2021/11/20 12:50:24;;;;;;;0.60;0.60;;;3.10;99.90;;;;;;5111421;28;20076;-66
2021/11/20 12:53:02;;;;;;;0.75;0.60;;;3.00;99.90;;;;;;5111806;28;20024;-66
2021/11/20 12:55:30;;;;;;;0.70;0.70;;;3.00;99.90;;;;;;5112219;28;20028;-66
2021/11/20 12:58:23;;;;;;;0.80;0.65;;;3.00;99.90;;;;;;5112131;28;20067;-65
2021/11/20 13:00:54;;;;;;;0.70;0.70;;;3.00;99.90;;;;;;5097811;28;20019;-65
2021/11/20 13:03:39;;;;;;;0.70;0.70;;;3.10;99.90;;;;;;5111951;28;20034;-62
2021/11/20 13:06:19;;;;;;;0.70;0.70;;;3.30;99.90;;;;;;5093668;28;20105;-62
2021/11/20 13:09:19;;;;;;;0.93;0.60;;;3.20;99.90;;;;;;5093623;28;20086;-63
2021/11/20 13:11:52;;;;;;;0.50;0.50;;;3.10;99.90;;;;;;5109290;28;20403;-63
2021/11/20 13:14:38;;;;;;;0.50;0.50;;;3.10;99.90;;;;;;5112180;28;20027;-63
2021/11/20 13:17:21;;;;;;;0.68;0.68;;;3.10;99.90;;;;;;5111904;28;20020;-63
2021/11/20 13:19:49;;;;;;;0.50;0.50;;;3.10;99.90;;;;;;5095210;28;20080;-63
2021/11/20 13:22:22;;;;;;;0.60;0.60;;;3.10;99.90;;;;;;5096384;28;20015;-63
2021/11/20 13:25:00;;;;;;;0.50;0.50;;;3.00;99.90;;;;;;5097346;28;20051;-62
2021/11/20 13:27:38;;;;;;;0.60;0.60;;;3.00;99.90;;;;;;5091684;28;20027;-62
2021/11/20 13:30:08;;;;;;;0.60;0.60;;;3.00;99.90;;;;;;5097746;28;20028;-62
2021/11/20 13:32:34;;;;;;;0.65;0.60;;;2.90;99.90;;;;;;5091074;28;20036;-62
2021/11/20 13:35:00;;;;;;;2.20;0.60;;;2.80;99.90;;;;;;5093526;28;20522;-62
2021/11/20 13:37:26;;;;;;;0.85;0.70;;;2.80;99.90;;;;;;5096468;28;20104;-62
2021/11/20 13:39:52;;;;;;;0.75;0.57;;;3.00;99.90;;;;;;5092267;28;20048;-62
2021/11/20 13:42:18;;;;;;;0.60;0.60;;;2.90;99.90;;;;;;5091021;28;20021;-63
2021/11/20 13:44:44;;;;;;;1.20;0.90;;;2.80;99.90;;;;;;5096193;28;20028;-63
2021/11/20 13:47:10;;;;;;;1.10;1.00;;;2.70;99.90;;;;;;5091017;28;20016;-63
2021/11/20 13:49:36;;;;;;;1.50;1.30;;;2.70;99.90;;;;;;5090687;28;20028;-62